Time;durP1;ratioP1;P1;durP2;ratioP2;P2;SDS_P1;SDS_P2;PMS_P1;PMS_P2;Temp;Humidity;BMP_temperature;BMP_pressure;BME280_temperature;BME280_humidity;BME280_pressure;Samples;Min_cycle;Max_cycle;Signal;HPM_P1;HPM_P2
2023/08/12 00:02:08;;;;;;;3.22;2.50;;;;;;;;;;5004330;28;20112;-70
2023/08/12 00:04:34;;;;;;;2.58;2.30;;;;;;;;;;4999951;28;20050;-70
2023/08/12 00:06:59;;;;;;;4.75;2.63;;;;;;;;;;4999910;28;20468;-69
2023/08/12 00:09:24;;;;;;;3.92;3.05;;;;;;;;;;4999625;28;20049;-70
2023/08/12 00:11:50;;;;;;;2.90;2.45;;;;;;;;;;5000220;28;20091;-70
2023/08/12 00:14:15;;;;;;;3.17;2.80;;;;;;;;;;5013612;28;20049;-70
2023/08/12 00:16:41;;;;;;;2.75;2.55;;;;;;;;;;5001751;28;20056;-70
2023/08/12 00:19:08;;;;;;;3.40;2.72;;;;;;;;;;4999890;28;20048;-70
2023/08/12 00:21:33;;;;;;;3.15;2.65;;;;;;;;;;4998988;28;20057;-70
2023/08/12 00:23:59;;;;;;;2.65;2.20;;;;;;;;;;4997963;28;20307;-69
2023/08/12 00:26:25;;;;;;;3.10;2.70;;;;;;;;;;5000979;28;20069;-69
2023/08/12 00:28:51;;;;;;;3.35;2.92;;;;;;;;;;4999421;28;20057;-70
2023/08/12 00:31:16;;;;;;;3.83;2.13;;;;;;;;;;4995122;28;20050;-69
2023/08/12 00:33:42;;;;;;;2.85;2.65;;;;;;;;;;5005937;28;20053;-69
2023/08/12 00:36:07;;;;;;;2.40;2.20;;;;;;;;;;5001734;28;20045;-69
2023/08/12 00:38:33;;;;;;;2.72;2.47;;;;;;;;;;5002851;28;20403;-69
2023/08/12 00:40:58;;;;;;;4.03;2.72;;;;;;;;;;5018434;28;20046;-69
2023/08/12 00:43:24;;;;;;;3.25;2.60;;;;;;;;;;5002409;28;20077;-69
2023/08/12 00:45:49;;;;;;;3.00;2.40;;;;;;;;;;4993353;28;20033;-69
2023/08/12 00:48:17;;;;;;;3.88;2.50;;;;;;;;;;5002500;28;20115;-69
2023/08/12 00:50:43;;;;;;;3.67;2.60;;;;;;;;;;5003015;28;20570;-69
2023/08/12 00:53:10;;;;;;;2.63;2.40;;;;;;;;;;5003040;28;20048;-69
2023/08/12 00:55:36;;;;;;;2.72;2.30;;;;;;;;;;4999234;28;20137;-70
2023/08/12 00:58:02;;;;;;;5.40;2.22;;;;;;;;;;5002497;28;20132;-70
2023/08/12 01:00:28;;;;;;;2.60;2.40;;;;;;;;;;5001554;28;20100;-70
2023/08/12 01:02:56;;;;;;;5.30;2.78;;;;;;;;;;5003003;28;20058;-70
2023/08/12 01:05:21;;;;;;;3.65;2.15;;;;;;;;;;5001507;28;20054;-70
2023/08/12 01:07:48;;;;;;;4.85;2.40;;;;;;;;;;5013028;28;20060;-70
2023/08/12 01:10:15;;;;;;;2.65;2.30;;;;;;;;;;5002537;28;20056;-70
2023/08/12 01:12:53;;;;;;;6.78;2.70;;;;;;;;;;5008760;28;20665;-70
2023/08/12 01:15:21;;;;;;;3.35;2.70;;;;;;;;;;5002638;28;20045;-70
2023/08/12 01:17:51;;;;;;;4.18;2.67;;;;;;;;;;5013375;28;20048;-70
2023/08/12 01:20:25;;;;;;;2.80;2.50;;;;;;;;;;5016817;28;20073;-70
2023/08/12 01:23:01;;;;;;;2.08;1.98;;;;;;;;;;4984874;28;20100;-70
2023/08/12 01:25:26;;;;;;;2.83;2.50;;;;;;;;;;5007816;28;20545;-70
2023/08/12 01:27:52;;;;;;;2.50;2.30;;;;;;;;;;5004949;28;20107;-70
2023/08/12 01:30:19;;;;;;;8.10;2.67;;;;;;;;;;4996220;28;20050;-70
2023/08/12 01:32:57;;;;;;;2.83;2.30;;;;;;;;;;4999965;28;20066;-71
2023/08/12 01:35:29;;;;;;;3.42;2.72;;;;;;;;;;5003409;28;20042;-71
2023/08/12 01:37:58;;;;;;;3.05;2.47;;;;;;;;;;5005609;28;20057;-70
2023/08/12 01:40:24;;;;;;;3.13;2.75;;;;;;;;;;5002117;28;20296;-71
2023/08/12 01:42:50;;;;;;;7.95;2.33;;;;;;;;;;5016987;28;20132;-71
2023/08/12 01:45:18;;;;;;;4.40;2.60;;;;;;;;;;5001622;28;20049;-72
2023/08/12 01:47:44;;;;;;;2.88;2.67;;;;;;;;;;4999894;28;20045;-71
2023/08/12 01:50:10;;;;;;;2.53;2.33;;;;;;;;;;5011016;28;20060;-71
2023/08/12 01:52:35;;;;;;;4.43;2.78;;;;;;;;;;5001876;28;20041;-71
2023/08/12 01:55:01;;;;;;;2.88;2.53;;;;;;;;;;5003487;28;20427;-71
2023/08/12 01:57:26;;;;;;;3.60;2.55;;;;;;;;;;5000039;28;20046;-71
2023/08/12 01:59:52;;;;;;;2.60;2.33;;;;;;;;;;4995890;28;20099;-71
2023/08/12 02:02:17;;;;;;;4.75;2.40;;;;;;;;;;4995575;28;20049;-71
2023/08/12 02:04:44;;;;;;;2.97;2.50;;;;;;;;;;5001480;28;20097;-70
2023/08/12 02:07:09;;;;;;;3.00;2.70;;;;;;;;;;4999693;28;20057;-70
2023/08/12 02:09:35;;;;;;;3.55;2.50;;;;;;;;;;4998648;28;20054;-70
2023/08/12 02:12:01;;;;;;;5.15;2.45;;;;;;;;;;4995522;28;20056;-71
2023/08/12 02:14:26;;;;;;;7.40;2.65;;;;;;;;;;5001206;28;20050;-70
2023/08/12 02:16:52;;;;;;;2.70;2.50;;;;;;;;;;4995556;28;20053;-70
2023/08/12 02:19:17;;;;;;;5.35;2.33;;;;;;;;;;5001478;28;20503;-71
2023/08/12 02:21:43;;;;;;;2.58;2.38;;;;;;;;;;4998603;28;20053;-70
2023/08/12 02:24:08;;;;;;;3.13;2.50;;;;;;;;;;5001524;28;20192;-70
2023/08/12 02:26:37;;;;;;;4.95;2.55;;;;;;;;;;5001076;28;20545;-70
2023/08/12 02:29:03;;;;;;;2.83;2.58;;;;;;;;;;5015730;28;20099;-70
2023/08/12 02:31:28;;;;;;;3.38;2.60;;;;;;;;;;5001101;28;20050;-71
2023/08/12 02:33:54;;;;;;;2.47;2.28;;;;;;;;;;4999654;28;20705;-73
2023/08/12 02:36:19;;;;;;;2.78;2.30;;;;;;;;;;5001377;28;20049;-71
2023/08/12 02:38:44;;;;;;;2.88;2.58;;;;;;;;;;4998519;28;20065;-71
2023/08/12 02:41:10;;;;;;;3.00;2.70;;;;;;;;;;4999432;28;20042;-70
2023/08/12 02:43:35;;;;;;;3.25;2.60;;;;;;;;;;4999452;28;20049;-70
2023/08/12 02:46:02;;;;;;;2.97;2.55;;;;;;;;;;4991257;28;20049;-70
2023/08/12 02:48:27;;;;;;;3.25;2.60;;;;;;;;;;4999246;28;20045;-71
2023/08/12 02:50:52;;;;;;;2.72;2.45;;;;;;;;;;5001520;28;20060;-70
2023/08/12 02:53:18;;;;;;;3.70;2.50;;;;;;;;;;5006567;28;20601;-71
2023/08/12 02:55:46;;;;;;;3.28;2.65;;;;;;;;;;4996396;28;20076;-70
2023/08/12 02:58:12;;;;;;;4.85;2.95;;;;;;;;;;4998633;28;20087;-70
2023/08/12 03:00:42;;;;;;;2.50;2.30;;;;;;;;;;5000666;28;20045;-70
2023/08/12 03:03:07;;;;;;;2.47;2.25;;;;;;;;;;5015306;28;20057;-70
2023/08/12 03:05:33;;;;;;;3.40;2.40;;;;;;;;;;4998143;28;20042;-70
2023/08/12 03:08:01;;;;;;;2.47;2.28;;;;;;;;;;4998103;28;20050;-70
2023/08/12 03:10:27;;;;;;;1.95;1.83;;;;;;;;;;5000155;28;20089;-70
2023/08/12 03:12:53;;;;;;;3.10;2.60;;;;;;;;;;5012476;28;20049;-71
2023/08/12 03:15:20;;;;;;;2.20;2.00;;;;;;;;;;4996703;28;20100;-71
2023/08/12 03:17:47;;;;;;;2.42;2.20;;;;;;;;;;4998779;28;20131;-70
2023/08/12 03:20:12;;;;;;;2.67;2.40;;;;;;;;;;5014710;28;20128;-70
2023/08/12 03:22:39;;;;;;;3.10;2.42;;;;;;;;;;4998741;28;20185;-70
2023/08/12 03:25:05;;;;;;;4.82;2.60;;;;;;;;;;4998632;28;20095;-70
2023/08/12 03:27:32;;;;;;;2.55;2.15;;;;;;;;;;5000981;28;20049;-70
2023/08/12 03:29:57;;;;;;;3.25;2.55;;;;;;;;;;4998549;28;20042;-70
2023/08/12 03:32:25;;;;;;;3.22;2.92;;;;;;;;;;4999649;28;20581;-71
2023/08/12 03:34:51;;;;;;;2.80;2.30;;;;;;;;;;4997308;28;20077;-70
2023/08/12 03:37:18;;;;;;;3.97;2.50;;;;;;;;;;5004125;28;20145;-70
2023/08/12 03:39:43;;;;;;;4.03;2.53;;;;;;;;;;4993120;28;20566;-70
2023/08/12 03:42:08;;;;;;;4.20;2.83;;;;;;;;;;4998692;28;20045;-70
2023/08/12 03:44:34;;;;;;;2.88;2.60;;;;;;;;;;4990757;28;20099;-70
2023/08/12 03:46:59;;;;;;;2.65;2.42;;;;;;;;;;4982161;28;20046;-70
2023/08/12 03:49:26;;;;;;;5.60;2.67;;;;;;;;;;4997453;28;20046;-70
2023/08/12 03:51:51;;;;;;;4.45;2.55;;;;;;;;;;4997564;28;20056;-70
2023/08/12 03:54:18;;;;;;;5.95;2.50;;;;;;;;;;4998357;28;20140;-70
2023/08/12 03:56:44;;;;;;;4.13;2.83;;;;;;;;;;5000235;28;20491;-70
2023/08/12 03:59:09;;;;;;;6.22;2.80;;;;;;;;;;4997949;28;20080;-70
2023/08/12 04:01:36;;;;;;;3.10;2.75;;;;;;;;;;4996682;28;20422;-70
2023/08/12 04:04:02;;;;;;;5.78;2.60;;;;;;;;;;4998624;28;20930;-69
2023/08/12 04:06:27;;;;;;;5.82;3.03;;;;;;;;;;4998446;28;20056;-69
2023/08/12 04:08:53;;;;;;;2.95;2.75;;;;;;;;;;5003438;28;20431;-70
2023/08/12 04:11:18;;;;;;;5.93;2.75;;;;;;;;;;5002855;28;20172;-70
2023/08/12 04:13:45;;;;;;;4.40;3.10;;;;;;;;;;5003486;28;20538;-70
2023/08/12 04:16:12;;;;;;;3.95;2.92;;;;;;;;;;5003845;28;20129;-70
2023/08/12 04:18:37;;;;;;;6.07;3.20;;;;;;;;;;5003377;28;20127;-70
2023/08/12 04:21:03;;;;;;;4.40;3.38;;;;;;;;;;5002060;28;20321;-70
2023/08/12 04:23:28;;;;;;;3.25;2.80;;;;;;;;;;4997665;28;20073;-69
2023/08/12 04:25:54;;;;;;;4.22;3.10;;;;;;;;;;5000698;28;20081;-70
2023/08/12 04:28:23;;;;;;;4.90;2.90;;;;;;;;;;5001229;28;20054;-70
2023/08/12 04:30:52;;;;;;;3.25;2.95;;;;;;;;;;4999597;28;20502;-70
2023/08/12 04:33:22;;;;;;;3.30;3.00;;;;;;;;;;5001550;28;20503;-70
2023/08/12 04:35:48;;;;;;;3.85;3.13;;;;;;;;;;5002724;28;20053;-70
2023/08/12 04:38:15;;;;;;;2.97;2.75;;;;;;;;;;5001187;28;20380;-70
2023/08/12 04:40:42;;;;;;;3.47;3.05;;;;;;;;;;5018153;28;20049;-70
2023/08/12 04:43:09;;;;;;;9.52;2.60;;;;;;;;;;5001803;28;20049;-70
2023/08/12 04:45:34;;;;;;;3.60;2.80;;;;;;;;;;5011351;28;20685;-72
2023/08/12 04:48:01;;;;;;;5.55;3.05;;;;;;;;;;4993058;28;20044;-70
2023/08/12 04:50:33;;;;;;;3.58;2.50;;;;;;;;;;5001155;28;20049;-71
2023/08/12 04:52:59;;;;;;;4.80;3.20;;;;;;;;;;5002761;28;20052;-70
2023/08/12 04:55:25;;;;;;;3.10;2.80;;;;;;;;;;5001786;28;20041;-71
2023/08/12 04:57:51;;;;;;;3.03;2.72;;;;;;;;;;5001980;28;20059;-70
2023/08/12 05:00:17;;;;;;;3.25;2.67;;;;;;;;;;5000741;28;20050;-71
2023/08/12 05:02:43;;;;;;;3.30;2.42;;;;;;;;;;5001408;28;20057;-71
2023/08/12 05:05:08;;;;;;;4.32;2.92;;;;;;;;;;5017245;28;20042;-71
2023/08/12 05:07:34;;;;;;;3.17;2.88;;;;;;;;;;5015461;28;20748;-71
2023/08/12 05:10:01;;;;;;;3.38;2.53;;;;;;;;;;5000426;28;20052;-71
2023/08/12 05:12:28;;;;;;;3.72;2.50;;;;;;;;;;5001305;28;20128;-71
2023/08/12 05:14:54;;;;;;;2.65;2.45;;;;;;;;;;5003138;28;20913;-71
2023/08/12 05:17:19;;;;;;;2.67;2.47;;;;;;;;;;5002906;28;20592;-71
2023/08/12 05:19:45;;;;;;;3.25;2.40;;;;;;;;;;5001698;28;20042;-71
2023/08/12 05:22:11;;;;;;;2.50;2.30;;;;;;;;;;5004708;28;20052;-71
2023/08/12 05:24:37;;;;;;;2.35;2.13;;;;;;;;;;5016223;28;20064;-71
2023/08/12 05:27:04;;;;;;;2.40;2.20;;;;;;;;;;5002176;28;20558;-71
2023/08/12 05:29:29;;;;;;;3.33;2.35;;;;;;;;;;5001455;28;20471;-71
2023/08/12 05:31:55;;;;;;;2.60;2.33;;;;;;;;;;5000971;28;20057;-71
2023/08/12 05:34:20;;;;;;;2.80;2.40;;;;;;;;;;5002140;28;20046;-71
2023/08/12 05:36:46;;;;;;;4.93;2.22;;;;;;;;;;5002420;28;20116;-71
2023/08/12 05:39:11;;;;;;;3.45;2.13;;;;;;;;;;5000991;28;20380;-71
2023/08/12 05:41:36;;;;;;;3.03;1.98;;;;;;;;;;5004560;28;20442;-71
2023/08/12 05:44:02;;;;;;;3.28;2.75;;;;;;;;;;5001429;28;20491;-71
2023/08/12 05:46:28;;;;;;;2.55;2.10;;;;;;;;;;5001486;28;20132;-71
2023/08/12 05:48:54;;;;;;;2.53;2.03;;;;;;;;;;5001374;28;20030;-71
2023/08/12 05:51:19;;;;;;;2.65;2.30;;;;;;;;;;5003248;28;20045;-71
2023/08/12 05:53:45;;;;;;;3.53;2.20;;;;;;;;;;5000398;28;20068;-71
2023/08/12 05:56:10;;;;;;;3.63;2.17;;;;;;;;;;5001552;28;20088;-71
2023/08/12 05:58:35;;;;;;;2.75;2.38;;;;;;;;;;4990565;28;20408;-71
2023/08/12 06:01:02;;;;;;;2.22;2.03;;;;;;;;;;5000943;28;20038;-71
2023/08/12 06:03:27;;;;;;;2.22;2.10;;;;;;;;;;5012319;28;20080;-71
2023/08/12 06:05:53;;;;;;;2.65;1.90;;;;;;;;;;5000581;28;20054;-70
2023/08/12 06:08:19;;;;;;;2.20;2.00;;;;;;;;;;5001387;28;20058;-70
2023/08/12 06:10:44;;;;;;;2.30;2.10;;;;;;;;;;4999024;28;20056;-70
2023/08/12 06:13:09;;;;;;;2.92;2.05;;;;;;;;;;5004034;28;20137;-70
2023/08/12 06:15:35;;;;;;;2.17;1.98;;;;;;;;;;5000115;28;20570;-71
2023/08/12 06:18:01;;;;;;;2.47;2.00;;;;;;;;;;5000997;28;20394;-69
2023/08/12 06:20:27;;;;;;;6.65;2.28;;;;;;;;;;5000787;28;20049;-71
2023/08/12 06:22:53;;;;;;;3.22;1.95;;;;;;;;;;5005206;28;20049;-73
2023/08/12 06:25:19;;;;;;;2.33;2.13;;;;;;;;;;5001562;28;20099;-73
2023/08/12 06:27:45;;;;;;;5.05;1.90;;;;;;;;;;4999442;28;20149;-73
2023/08/12 06:30:12;;;;;;;2.85;2.20;;;;;;;;;;5000252;28;20057;-73
2023/08/12 06:32:38;;;;;;;2.75;2.20;;;;;;;;;;4999801;28;20050;-73
2023/08/12 06:35:03;;;;;;;3.55;2.15;;;;;;;;;;5000067;28;20049;-72
2023/08/12 06:37:29;;;;;;;2.25;2.05;;;;;;;;;;5001358;28;20041;-74
2023/08/12 06:39:55;;;;;;;2.58;1.90;;;;;;;;;;5000237;28;20057;-72
2023/08/12 06:42:21;;;;;;;2.35;2.10;;;;;;;;;;5005195;28;20045;-72
2023/08/12 06:44:54;;;;;;;2.88;2.08;;;;;;;;;;5007453;28;20045;-73
2023/08/12 06:47:19;;;;;;;2.22;1.98;;;;;;;;;;5007095;28;20045;-72
2023/08/12 06:49:45;;;;;;;2.42;2.10;;;;;;;;;;4980170;28;20049;-72
2023/08/12 06:52:10;;;;;;;4.65;2.00;;;;;;;;;;5006302;28;20119;-72
2023/08/12 06:54:35;;;;;;;2.42;2.22;;;;;;;;;;5005435;28;20068;-72
2023/08/12 06:57:01;;;;;;;2.05;1.95;;;;;;;;;;5004847;28;20037;-72
2023/08/12 06:59:26;;;;;;;2.95;2.58;;;;;;;;;;5007269;28;20422;-72
2023/08/12 07:01:52;;;;;;;4.07;2.15;;;;;;;;;;5001166;28;20529;-73
2023/08/12 07:04:17;;;;;;;2.75;2.30;;;;;;;;;;5005189;28;20053;-73
2023/08/12 07:06:43;;;;;;;3.40;2.28;;;;;;;;;;5001542;28;20053;-73
2023/08/12 07:09:08;;;;;;;3.05;2.22;;;;;;;;;;5005793;28;20049;-73
2023/08/12 07:11:33;;;;;;;2.20;2.00;;;;;;;;;;4984982;28;20898;-73
2023/08/12 07:13:59;;;;;;;5.93;2.08;;;;;;;;;;4981457;28;20418;-73
2023/08/12 07:16:24;;;;;;;2.47;2.20;;;;;;;;;;4994167;28;20052;-73
2023/08/12 07:18:50;;;;;;;2.75;1.90;;;;;;;;;;4996001;28;20052;-72
2023/08/12 07:21:15;;;;;;;2.20;2.00;;;;;;;;;;4972993;28;20064;-73
2023/08/12 07:23:41;;;;;;;2.67;2.13;;;;;;;;;;5011583;28;20536;-74
2023/08/12 07:26:06;;;;;;;2.60;2.22;;;;;;;;;;4999018;28;20141;-73
2023/08/12 07:28:32;;;;;;;2.75;2.35;;;;;;;;;;4998392;28;20974;-73
2023/08/12 07:31:00;;;;;;;2.67;1.73;;;;;;;;;;4999968;28;20076;-72
2023/08/12 07:33:26;;;;;;;2.42;2.13;;;;;;;;;;5013614;28;20045;-73
2023/08/12 07:35:51;;;;;;;2.90;2.17;;;;;;;;;;4998017;28;20672;-73
2023/08/12 07:38:17;;;;;;;2.47;2.08;;;;;;;;;;5012848;28;20510;-73
2023/08/12 07:40:42;;;;;;;2.10;1.90;;;;;;;;;;4997628;28;20445;-73
2023/08/12 07:43:08;;;;;;;3.67;2.28;;;;;;;;;;5005515;28;20137;-72
2023/08/12 07:45:33;;;;;;;4.85;2.10;;;;;;;;;;5003407;28;20049;-74
2023/08/12 07:47:59;;;;;;;3.25;2.20;;;;;;;;;;5003344;28;20050;-73
2023/08/12 07:50:24;;;;;;;6.20;2.30;;;;;;;;;;5002988;28;20084;-74
2023/08/12 07:52:50;;;;;;;2.30;2.00;;;;;;;;;;4993146;28;20049;-73
2023/08/12 07:55:16;;;;;;;2.38;1.98;;;;;;;;;;5007662;28;20048;-73
2023/08/12 07:57:41;;;;;;;2.13;1.90;;;;;;;;;;5007398;28;20046;-73
2023/08/12 08:00:08;;;;;;;6.43;1.83;;;;;;;;;;5007346;28;20072;-74
2023/08/12 08:02:33;;;;;;;3.53;1.85;;;;;;;;;;5009825;28;20061;-73
2023/08/12 08:04:59;;;;;;;2.40;2.20;;;;;;;;;;5006640;28;20053;-73
2023/08/12 08:07:24;;;;;;;2.15;1.98;;;;;;;;;;5010494;28;20040;-73
2023/08/12 08:09:51;;;;;;;3.58;1.85;;;;;;;;;;5006189;28;20058;-74
2023/08/12 08:12:16;;;;;;;2.20;1.95;;;;;;;;;;5011465;28;20462;-75
2023/08/12 08:14:42;;;;;;;2.05;1.88;;;;;;;;;;5006483;28;20045;-72
2023/08/12 08:17:08;;;;;;;2.17;1.98;;;;;;;;;;5000648;28;20128;-74
2023/08/12 08:19:33;;;;;;;3.28;1.88;;;;;;;;;;5005194;28;20041;-74
2023/08/12 08:21:59;;;;;;;3.40;1.90;;;;;;;;;;5003533;28;20057;-73
2023/08/12 08:24:25;;;;;;;2.28;1.88;;;;;;;;;;4998891;28;20084;-72
2023/08/12 08:26:50;;;;;;;1.67;1.58;;;;;;;;;;5000867;28;20053;-73
2023/08/12 08:29:15;;;;;;;2.33;1.95;;;;;;;;;;5002033;28;20053;-73
2023/08/12 08:31:41;;;;;;;4.47;2.25;;;;;;;;;;5003678;28;20566;-73
2023/08/12 08:34:06;;;;;;;2.83;1.90;;;;;;;;;;5002226;28;20050;-73
2023/08/12 08:36:32;;;;;;;2.13;1.80;;;;;;;;;;4989652;28;20050;-74
2023/08/12 08:38:57;;;;;;;1.73;1.63;;;;;;;;;;5001261;28;20042;-74
2023/08/12 08:41:32;;;;;;;1.70;1.60;;;;;;;;;;5007128;28;20061;-73
2023/08/12 08:44:02;;;;;;;2.10;1.92;;;;;;;;;;5007328;28;20053;-72
2023/08/12 08:46:28;;;;;;;5.00;1.93;;;;;;;;;;5006172;28;20695;-73
2023/08/12 08:48:54;;;;;;;2.05;1.90;;;;;;;;;;5002228;28;20046;-73
2023/08/12 08:51:20;;;;;;;2.42;1.65;;;;;;;;;;5005555;28;20038;-73
2023/08/12 08:53:46;;;;;;;2.10;1.90;;;;;;;;;;5002789;28;20546;-75
2023/08/12 08:56:12;;;;;;;7.15;1.95;;;;;;;;;;5002578;28;20415;-73
2023/08/12 08:58:39;;;;;;;3.97;1.98;;;;;;;;;;5003231;28;20072;-71
2023/08/12 09:01:07;;;;;;;2.67;2.10;;;;;;;;;;5003820;28;20139;-73
2023/08/12 09:03:37;;;;;;;1.90;1.80;;;;;;;;;;5000303;28;20052;-73
2023/08/12 09:06:03;;;;;;;2.50;1.90;;;;;;;;;;4986760;28;20053;-72
2023/08/12 09:08:31;;;;;;;2.30;2.10;;;;;;;;;;5010161;28;20049;-70
2023/08/12 09:10:59;;;;;;;2.53;2.00;;;;;;;;;;5001834;28;20045;-71
2023/08/12 09:13:25;;;;;;;3.03;1.75;;;;;;;;;;5011482;28;20029;-71
2023/08/12 09:15:51;;;;;;;2.25;2.03;;;;;;;;;;4991028;28;20111;-73
2023/08/12 09:18:17;;;;;;;2.25;1.80;;;;;;;;;;5006157;28;20044;-75
2023/08/12 09:20:43;;;;;;;1.73;1.63;;;;;;;;;;5007739;28;20487;-75
2023/08/12 09:23:10;;;;;;;2.47;2.28;;;;;;;;;;5008418;28;20048;-71
2023/08/12 09:25:44;;;;;;;2.10;1.90;;;;;;;;;;5008373;28;20079;-72
2023/08/12 09:28:11;;;;;;;1.90;1.80;;;;;;;;;;5007724;28;20511;-71
2023/08/12 09:30:37;;;;;;;2.45;1.90;;;;;;;;;;5009162;28;20633;-73
2023/08/12 09:33:07;;;;;;;1.77;1.67;;;;;;;;;;5006615;28;20414;-70
2023/08/12 09:35:36;;;;;;;3.63;2.20;;;;;;;;;;5009760;28;20132;-71
2023/08/12 09:38:07;;;;;;;2.10;1.95;;;;;;;;;;5007845;28;20074;-75
2023/08/12 09:40:34;;;;;;;2.00;1.90;;;;;;;;;;4992797;28;20049;-71
2023/08/12 09:43:01;;;;;;;2.10;1.90;;;;;;;;;;5005487;28;20188;-69
2023/08/12 09:45:26;;;;;;;2.20;2.00;;;;;;;;;;5007557;28;20050;-71
2023/08/12 09:47:53;;;;;;;1.98;1.80;;;;;;;;;;5000948;28;20097;-72
2023/08/12 09:50:25;;;;;;;3.25;1.70;;;;;;;;;;4997356;28;20042;-73
2023/08/12 09:52:51;;;;;;;2.13;1.95;;;;;;;;;;5005983;28;20268;-73
2023/08/12 09:55:18;;;;;;;2.28;2.08;;;;;;;;;;5002775;28;20104;-72
2023/08/12 09:57:47;;;;;;;2.30;2.10;;;;;;;;;;4999522;28;20042;-73
2023/08/12 10:00:16;;;;;;;4.40;2.00;;;;;;;;;;4997111;28;20046;-71
2023/08/12 10:02:46;;;;;;;2.00;1.80;;;;;;;;;;5001613;28;20049;-72
2023/08/12 10:05:18;;;;;;;2.50;1.88;;;;;;;;;;4999081;28;20034;-72
2023/08/12 10:07:45;;;;;;;2.22;2.03;;;;;;;;;;4999121;28;20034;-73
2023/08/12 10:10:12;;;;;;;2.05;1.95;;;;;;;;;;4999308;28;20054;-71
2023/08/12 10:12:38;;;;;;;1.80;1.70;;;;;;;;;;4999659;28;20948;-73
2023/08/12 10:15:06;;;;;;;1.83;1.73;;;;;;;;;;4999907;28;20042;-75
2023/08/12 10:17:33;;;;;;;2.17;2.00;;;;;;;;;;4999488;28;20629;-73
2023/08/12 10:20:08;;;;;;;2.80;1.70;;;;;;;;;;4998501;28;20069;-72
2023/08/12 10:22:35;;;;;;;4.82;2.03;;;;;;;;;;5006206;28;20503;-74
2023/08/12 10:25:03;;;;;;;4.25;2.10;;;;;;;;;;5009421;28;20060;-74
2023/08/12 10:27:29;;;;;;;2.00;1.90;;;;;;;;;;5003764;28;20128;-74
2023/08/12 10:29:58;;;;;;;2.08;1.88;;;;;;;;;;5005853;28;20156;-73
2023/08/12 10:32:25;;;;;;;2.63;1.80;;;;;;;;;;5008835;28;20056;-72
2023/08/12 10:35:00;;;;;;;2.80;2.00;;;;;;;;;;5003027;28;20410;-75
2023/08/12 10:37:26;;;;;;;5.03;1.98;;;;;;;;;;5002270;28;20041;-75
2023/08/12 10:39:55;;;;;;;2.00;1.90;;;;;;;;;;5004163;28;20123;-77
2023/08/12 10:42:43;;;;;;;2.25;1.85;;;;;;;;;;4994618;28;20473;-75
2023/08/12 10:45:10;;;;;;;1.77;1.67;;;;;;;;;;4999270;28;20054;-73
2023/08/12 10:48:08;;;;;;;2.22;2.03;;;;;;;;;;4996889;28;20569;-74
2023/08/12 10:50:34;;;;;;;2.95;1.65;;;;;;;;;;5007511;28;20513;-74
2023/08/12 10:53:24;;;;;;;2.30;1.80;;;;;;;;;;5003592;28;20053;-73
2023/08/12 10:55:50;;;;;;;1.90;1.80;;;;;;;;;;4997634;28;20061;-73
2023/08/12 10:58:40;;;;;;;2.00;1.90;;;;;;;;;;4989659;28;20115;-78
2023/08/12 11:01:13;;;;;;;6.05;1.80;;;;;;;;;;5005263;28;20077;-73
2023/08/12 11:03:42;;;;;;;2.25;1.90;;;;;;;;;;5010863;28;20037;-72
2023/08/12 11:06:10;;;;;;;2.42;2.22;;;;;;;;;;5006319;28;20049;-77
2023/08/12 11:08:35;;;;;;;1.90;1.80;;;;;;;;;;5005431;28;20683;-74
2023/08/12 11:11:02;;;;;;;1.95;1.80;;;;;;;;;;4997529;28;20073;-73
2023/08/12 11:13:28;;;;;;;1.77;1.67;;;;;;;;;;5002511;28;21143;-73
2023/08/12 11:16:06;;;;;;;2.13;1.90;;;;;;;;;;4998715;28;20052;-72
2023/08/12 11:18:32;;;;;;;8.70;2.13;;;;;;;;;;4980396;28;20048;-72
2023/08/12 11:20:58;;;;;;;2.20;2.00;;;;;;;;;;4997702;28;20049;-72
2023/08/12 11:23:23;;;;;;;3.63;1.95;;;;;;;;;;4997346;28;20069;-72
2023/08/12 11:25:50;;;;;;;2.45;1.67;;;;;;;;;;4998505;28;20144;-71
2023/08/12 11:28:19;;;;;;;2.60;1.70;;;;;;;;;;4997321;28;20042;-73
2023/08/12 11:30:45;;;;;;;3.78;2.22;;;;;;;;;;5001684;28;20066;-73
2023/08/12 11:33:11;;;;;;;3.38;1.80;;;;;;;;;;4998195;28;20537;-76
2023/08/12 11:35:37;;;;;;;2.45;2.00;;;;;;;;;;4998304;28;20145;-74
2023/08/12 11:38:05;;;;;;;1.80;1.70;;;;;;;;;;5003367;28;20594;-75
2023/08/12 11:40:30;;;;;;;6.22;1.67;;;;;;;;;;5004081;28;20712;-75
2023/08/12 11:42:56;;;;;;;1.77;1.67;;;;;;;;;;5008420;28;20056;-72
2023/08/12 11:45:25;;;;;;;1.90;1.80;;;;;;;;;;4996719;28;20050;-72
2023/08/12 11:47:54;;;;;;;2.22;1.60;;;;;;;;;;4997481;28;20174;-72
2023/08/12 11:50:24;;;;;;;9.18;1.83;;;;;;;;;;5007257;28;20041;-75
2023/08/12 11:52:51;;;;;;;2.53;1.60;;;;;;;;;;4998990;28;20065;-73
2023/08/12 11:55:16;;;;;;;2.10;1.70;;;;;;;;;;4997640;28;20984;-75
2023/08/12 11:57:43;;;;;;;1.80;1.70;;;;;;;;;;5003961;28;20091;-73
2023/08/12 12:00:13;;;;;;;1.98;1.73;;;;;;;;;;5000062;28;20121;-72
2023/08/12 12:02:41;;;;;;;2.75;1.83;;;;;;;;;;5005482;28;20053;-72
2023/08/12 12:05:11;;;;;;;1.95;1.70;;;;;;;;;;5003411;28;20104;-73
2023/08/12 12:07:36;;;;;;;1.70;1.60;;;;;;;;;;5005823;28;20073;-72
2023/08/12 12:10:02;;;;;;;1.63;1.52;;;;;;;;;;5006771;28;20081;-72
2023/08/12 12:12:28;;;;;;;1.90;1.80;;;;;;;;;;5006526;28;20057;-74
2023/08/12 12:14:55;;;;;;;1.65;1.55;;;;;;;;;;5004152;28;20038;-71
2023/08/12 12:17:22;;;;;;;2.55;1.50;;;;;;;;;;5003405;28;20454;-72
2023/08/12 12:19:55;;;;;;;2.17;1.80;;;;;;;;;;4999260;28;20050;-72
2023/08/12 12:22:26;;;;;;;1.70;1.60;;;;;;;;;;5008505;28;20046;-74
2023/08/12 12:24:52;;;;;;;2.60;1.70;;;;;;;;;;5008725;28;20133;-73
2023/08/12 12:27:17;;;;;;;1.60;1.50;;;;;;;;;;5001740;28;20463;-75
2023/08/12 12:29:43;;;;;;;2.17;1.70;;;;;;;;;;5002304;28;20510;-73
2023/08/12 12:32:08;;;;;;;2.13;1.40;;;;;;;;;;5002694;28;20046;-74
2023/08/12 12:34:34;;;;;;;2.00;1.80;;;;;;;;;;5003779;28;20610;-73
2023/08/12 12:36:59;;;;;;;5.28;1.60;;;;;;;;;;5007146;28;20056;-73
2023/08/12 12:39:25;;;;;;;4.00;1.40;;;;;;;;;;5007085;28;20054;-74
2023/08/12 12:41:50;;;;;;;1.67;1.50;;;;;;;;;;5001220;28;20048;-74
2023/08/12 12:44:16;;;;;;;1.80;1.60;;;;;;;;;;5006875;28;20128;-74
2023/08/12 12:46:41;;;;;;;1.52;1.42;;;;;;;;;;5006858;28;21007;-74
2023/08/12 12:49:07;;;;;;;1.45;1.35;;;;;;;;;;5004340;28;20503;-74
2023/08/12 12:51:32;;;;;;;4.40;4.00;;;;;;;;;;5002599;28;20518;-73
2023/08/12 12:53:58;;;;;;;1.67;1.58;;;;;;;;;;5011821;28;20134;-76
2023/08/12 12:56:23;;;;;;;2.10;1.90;;;;;;;;;;5003095;28;20111;-74
2023/08/12 12:58:49;;;;;;;1.83;1.65;;;;;;;;;;5014103;28;20042;-73
2023/08/12 13:01:14;;;;;;;1.67;1.58;;;;;;;;;;5011055;28;20366;-74
2023/08/12 13:03:40;;;;;;;1.70;1.60;;;;;;;;;;5004862;28;20165;-73
2023/08/12 13:06:06;;;;;;;1.58;1.45;;;;;;;;;;5001478;28;20124;-73
2023/08/12 13:08:31;;;;;;;2.45;1.77;;;;;;;;;;5001139;28;20411;-73
2023/08/12 13:10:57;;;;;;;1.67;1.40;;;;;;;;;;5004869;28;20088;-72
2023/08/12 13:13:23;;;;;;;2.25;1.63;;;;;;;;;;5001032;28;20137;-74
2023/08/12 13:15:48;;;;;;;2.22;1.48;;;;;;;;;;5002602;28;20037;-72
2023/08/12 13:18:14;;;;;;;1.60;1.42;;;;;;;;;;5005520;28;21134;-73
2023/08/12 13:20:40;;;;;;;2.53;1.40;;;;;;;;;;5007477;28;20049;-72
2023/08/12 13:23:05;;;;;;;7.10;1.40;;;;;;;;;;5006770;28;20053;-73
2023/08/12 13:25:33;;;;;;;1.65;1.55;;;;;;;;;;4999692;28;20053;-73
2023/08/12 13:28:00;;;;;;;1.75;1.60;;;;;;;;;;4999425;28;20579;-72
2023/08/12 13:30:25;;;;;;;1.50;1.40;;;;;;;;;;4999583;28;20466;-72
2023/08/12 13:32:51;;;;;;;9.70;1.60;;;;;;;;;;5003864;28;20564;-72
2023/08/12 13:35:17;;;;;;;1.70;1.45;;;;;;;;;;5000426;28;20411;-71
2023/08/12 13:37:42;;;;;;;1.73;1.50;;;;;;;;;;5011464;28;20127;-71
2023/08/12 13:40:15;;;;;;;1.40;1.30;;;;;;;;;;5004807;28;20073;-73
2023/08/12 13:42:41;;;;;;;1.58;1.30;;;;;;;;;;5000715;28;20042;-73
2023/08/12 13:45:07;;;;;;;1.77;1.63;;;;;;;;;;5003088;28;20053;-73
2023/08/12 13:47:34;;;;;;;1.80;1.70;;;;;;;;;;5001613;28;20054;-72
2023/08/12 13:50:00;;;;;;;1.55;1.45;;;;;;;;;;5014188;28;20050;-72
2023/08/12 13:52:25;;;;;;;1.95;1.85;;;;;;;;;;5004374;28;20042;-72
2023/08/12 13:54:50;;;;;;;3.38;2.17;;;;;;;;;;4999438;28;20473;-72
2023/08/12 13:57:16;;;;;;;4.47;1.77;;;;;;;;;;5008360;28;20384;-72
2023/08/12 13:59:43;;;;;;;1.55;1.45;;;;;;;;;;5005245;28;20085;-72
2023/08/12 14:02:10;;;;;;;2.30;2.10;;;;;;;;;;5001821;28;20050;-72
2023/08/12 14:04:35;;;;;;;1.58;1.48;;;;;;;;;;4999718;28;20054;-72
2023/08/12 14:07:01;;;;;;;2.05;1.52;;;;;;;;;;4998182;28;20099;-72
2023/08/12 14:09:26;;;;;;;1.65;1.50;;;;;;;;;;5003027;28;20088;-71
2023/08/12 14:11:51;;;;;;;3.83;1.40;;;;;;;;;;5003330;28;20114;-71
2023/08/12 14:14:17;;;;;;;2.53;1.80;;;;;;;;;;5005792;28;20038;-71
2023/08/12 14:16:42;;;;;;;1.80;1.70;;;;;;;;;;5004163;28;20122;-72
2023/08/12 14:19:08;;;;;;;2.25;1.50;;;;;;;;;;4999691;28;20042;-72
2023/08/12 14:21:34;;;;;;;1.90;1.80;;;;;;;;;;5005366;28;20391;-72
2023/08/12 14:23:59;;;;;;;1.77;1.60;;;;;;;;;;4997920;28;20133;-72
2023/08/12 14:26:24;;;;;;;2.75;1.40;;;;;;;;;;5001271;28;20116;-73
2023/08/12 14:28:50;;;;;;;2.20;2.00;;;;;;;;;;5003112;28;20394;-72
2023/08/12 14:31:15;;;;;;;2.90;1.73;;;;;;;;;;4999400;28;20077;-72
2023/08/12 14:33:41;;;;;;;3.97;1.63;;;;;;;;;;4999523;28;20052;-73
2023/08/12 14:36:06;;;;;;;1.83;1.52;;;;;;;;;;4998910;28;20525;-72
2023/08/12 14:38:32;;;;;;;2.50;1.67;;;;;;;;;;5001883;28;20046;-72
2023/08/12 14:40:58;;;;;;;1.75;1.65;;;;;;;;;;5000621;28;20362;-72